createdAt,value
2022-11-21T00:02:07.156Z,17.57
2022-11-21T00:04:35.408Z,18.17
2022-11-21T00:07:03.266Z,19.83
2022-11-21T00:09:33.997Z,18.97
2022-11-21T00:12:01.875Z,18.13
2022-11-21T00:14:29.935Z,18.13
2022-11-21T00:16:57.933Z,16.20
2022-11-21T00:19:27.205Z,20.30
2022-11-21T00:21:55.125Z,18.03
2022-11-21T00:24:23.172Z,18.43
2022-11-21T00:26:51.122Z,17.80
2022-11-21T00:29:18.926Z,17.63
2022-11-21T00:31:47.008Z,18.50
2022-11-21T00:34:16.596Z,17.60
2022-11-21T00:36:46.046Z,18.43
2022-11-21T00:39:14.036Z,16.83
2022-11-21T00:41:42.134Z,18.90
2022-11-21T00:44:13.139Z,17.93
2022-11-21T00:46:41.089Z,17.53
2022-11-21T00:49:08.933Z,17.23
2022-11-21T00:51:36.812Z,18.63
2022-11-21T00:54:06.148Z,17.17
2022-11-21T00:56:34.008Z,17.43
2022-11-21T00:59:02.184Z,17.73
2022-11-21T01:01:30.253Z,18.40
2022-11-21T01:03:58.853Z,18.80
2022-11-21T01:06:26.706Z,18.37
2022-11-21T01:08:54.684Z,17.27
2022-11-21T01:11:24.060Z,17.17
2022-11-21T01:13:54.918Z,19.97
2022-11-21T01:16:25.446Z,19.20
2022-11-21T01:18:53.399Z,19.90
2022-11-21T01:21:23.724Z,18.17
2022-11-21T01:23:51.692Z,16.90
2022-11-21T01:26:21.879Z,17.30
2022-11-21T01:28:51.648Z,17.67
2022-11-21T01:31:21.939Z,17.67
2022-11-21T01:33:50.311Z,17.73
2022-11-21T01:36:20.031Z,16.07
2022-11-21T01:38:49.719Z,15.50
2022-11-21T01:41:22.348Z,15.93
2022-11-21T01:43:51.964Z,15.43
2022-11-21T01:46:21.157Z,15.67
2022-11-21T01:48:55.633Z,15.23
2022-11-21T01:51:27.390Z,13.87
2022-11-21T01:54:00.910Z,12.40
2022-11-21T01:56:43.657Z,13.90
2022-11-21T01:59:19.149Z,14.50
2022-11-21T02:01:48.488Z,12.77
2022-11-21T02:04:16.930Z,11.80
2022-11-21T02:06:45.671Z,13.70
2022-11-21T02:09:13.883Z,12.90
2022-11-21T02:11:47.603Z,11.47
2022-11-21T02:14:17.159Z,13.73
2022-11-21T02:16:45.639Z,12.93
2022-11-21T02:19:23.943Z,12.03
2022-11-21T02:21:57.127Z,13.33
2022-11-21T02:24:31.018Z,11.77
2022-11-21T02:27:01.762Z,13.80
2022-11-21T02:29:29.956Z,12.73
2022-11-21T02:32:00.994Z,12.97
2022-11-21T02:34:29.255Z,12.67
2022-11-21T02:36:58.060Z,12.70
2022-11-21T02:39:32.298Z,11.63
2022-11-21T02:42:09.003Z,11.67
2022-11-21T02:44:47.927Z,10.67
2022-11-21T02:47:16.122Z,10.77
2022-11-21T02:49:52.139Z,13.00
2022-11-21T02:52:19.971Z,10.33
2022-11-21T02:54:51.270Z,10.50
2022-11-21T02:57:20.844Z,10.77
2022-11-21T02:59:48.780Z,10.23
2022-11-21T03:02:16.737Z,10.10
2022-11-21T03:04:45.383Z,10.43
2022-11-21T03:07:13.515Z,9.53
2022-11-21T03:09:41.540Z,10.27
2022-11-21T03:12:10.887Z,10.40
2022-11-21T03:14:40.160Z,10.40
2022-11-21T03:17:09.926Z,10.60
2022-11-21T03:19:37.854Z,10.50
2022-11-21T03:22:05.885Z,13.07
2022-11-21T03:24:33.863Z,12.13
2022-11-21T03:27:02.018Z,11.93
2022-11-21T03:29:30.001Z,11.70
2022-11-21T03:31:59.844Z,12.33
2022-11-21T03:34:28.053Z,10.80
2022-11-21T03:36:57.949Z,10.50
2022-11-21T03:39:26.027Z,10.30
2022-11-21T03:41:54.055Z,9.80
2022-11-21T03:44:22.188Z,11.00
2022-11-21T03:46:50.571Z,11.37
2022-11-21T03:49:20.140Z,10.87
2022-11-21T03:51:48.403Z,11.50
2022-11-21T03:54:16.651Z,12.37
2022-11-21T03:56:44.614Z,10.57
2022-11-21T03:59:12.515Z,11.47
2022-11-21T04:01:40.489Z,11.90
2022-11-21T04:04:08.986Z,12.20
2022-11-21T04:06:38.313Z,11.30
2022-11-21T04:09:06.147Z,11.57
2022-11-21T04:11:34.131Z,10.87
2022-11-21T04:14:01.964Z,12.20
2022-11-21T04:16:29.774Z,11.30
2022-11-21T04:18:57.689Z,12.40
2022-11-21T04:21:25.510Z,12.50
2022-11-21T04:23:55.195Z,13.97
2022-11-21T04:26:23.110Z,13.03
2022-11-21T04:28:52.259Z,14.00
2022-11-21T04:31:20.125Z,15.53
2022-11-21T04:33:48.124Z,13.60
2022-11-21T04:36:16.064Z,14.77
2022-11-21T04:38:44.179Z,15.40
2022-11-21T04:41:14.795Z,17.87
2022-11-21T04:43:43.835Z,17.37
2022-11-21T04:46:11.809Z,16.97
2022-11-21T04:48:40.137Z,15.23
2022-11-21T04:51:08.089Z,15.87
2022-11-21T04:53:40.008Z,14.63
2022-11-21T04:56:10.802Z,16.23
2022-11-21T04:58:40.126Z,14.80
2022-11-21T05:01:08.940Z,17.23
2022-11-21T05:03:37.515Z,15.47
2022-11-21T05:06:05.599Z,18.27
2022-11-21T05:08:33.644Z,15.63
2022-11-21T05:11:19.334Z,14.23
2022-11-21T05:13:48.637Z,16.53
2022-11-21T05:16:16.430Z,16.40
2022-11-21T05:18:44.641Z,14.73
2022-11-21T05:21:12.745Z,15.73
2022-11-21T05:23:40.660Z,16.50
2022-11-21T05:26:08.671Z,16.67
2022-11-21T05:28:37.113Z,16.30
2022-11-21T05:31:06.631Z,15.27
2022-11-21T05:33:34.607Z,17.43
2022-11-21T05:36:02.480Z,15.73
2022-11-21T05:38:30.331Z,17.23
2022-11-21T05:40:58.298Z,17.80
2022-11-21T05:43:43.732Z,16.70
2022-11-21T05:46:16.793Z,19.00
2022-11-21T05:48:45.242Z,18.37
2022-11-21T05:51:13.664Z,20.40
2022-11-21T05:53:41.711Z,19.43
2022-11-21T05:56:11.754Z,19.83
2022-11-21T05:58:39.696Z,22.97
2022-11-21T06:01:08.982Z,20.27
2022-11-21T06:03:39.289Z,20.23
2022-11-21T06:06:08.867Z,21.63
2022-11-21T06:08:39.780Z,19.10
2022-11-21T06:11:09.107Z,21.03
2022-11-21T06:13:37.563Z,19.20
2022-11-21T06:16:08.070Z,20.33
2022-11-21T06:18:39.479Z,18.73
2022-11-21T06:21:09.585Z,18.47
2022-11-21T06:23:39.144Z,22.40
2022-11-21T06:26:09.159Z,21.60
2022-11-21T06:28:39.502Z,18.67
2022-11-21T06:31:08.386Z,18.73
2022-11-21T06:33:39.002Z,21.80
2022-11-21T06:36:09.564Z,21.27
2022-11-21T06:38:39.263Z,23.77
2022-11-21T06:41:07.415Z,24.40
2022-11-21T06:43:35.504Z,23.27
2022-11-21T06:46:04.706Z,24.23
2022-11-21T06:48:32.907Z,27.60
2022-11-21T06:51:06.908Z,24.10
2022-11-21T06:53:37.835Z,23.63
2022-11-21T06:56:06.802Z,26.83
2022-11-21T06:58:34.804Z,27.80
2022-11-21T07:01:06.533Z,31.97
2022-11-21T07:03:35.305Z,29.57
2022-11-21T07:06:05.236Z,29.80
2022-11-21T07:08:36.289Z,32.97
2022-11-21T07:13:54.159Z,32.77
2022-11-21T07:16:22.191Z,30.57
2022-11-21T07:18:50.117Z,33.73
2022-11-21T07:21:19.397Z,32.90
2022-11-21T07:23:51.872Z,30.80
2022-11-21T07:26:22.373Z,31.27
2022-11-21T07:28:50.515Z,30.63
2022-11-21T07:31:18.623Z,32.27
2022-11-21T07:33:48.051Z,30.67
2022-11-21T07:36:18.565Z,26.80
2022-11-21T07:38:49.053Z,25.93
2022-11-21T07:41:16.941Z,26.80
2022-11-21T07:43:44.786Z,28.03
2022-11-21T07:46:12.675Z,29.13
2022-11-21T07:48:40.661Z,28.50
2022-11-21T07:51:08.839Z,27.27
2022-11-21T07:53:36.970Z,28.00
2022-11-21T07:56:09.632Z,28.10
2022-11-21T07:58:40.930Z,29.83
2022-11-21T08:01:09.229Z,31.77
2022-11-21T08:03:37.093Z,37.67
2022-11-21T08:06:07.800Z,36.33
2022-11-21T08:08:36.006Z,36.20
2022-11-21T08:11:07.705Z,41.87
2022-11-21T08:13:36.129Z,41.53
2022-11-21T08:16:04.860Z,37.90
2022-11-21T08:18:33.216Z,41.57
2022-11-21T08:21:02.573Z,40.30
2022-11-21T08:23:30.615Z,38.47
2022-11-21T08:25:59.172Z,37.97
2022-11-21T08:28:29.156Z,41.83
2022-11-21T08:30:57.910Z,37.20
2022-11-21T08:33:26.192Z,43.13
2022-11-21T08:35:54.398Z,37.73
2022-11-21T08:38:22.855Z,40.10
2022-11-21T08:41:17.226Z,35.63
2022-11-21T08:43:47.361Z,39.20
2022-11-21T08:46:15.717Z,32.30
2022-11-21T08:48:43.872Z,32.63
2022-11-21T08:51:12.208Z,34.73
2022-11-21T08:53:40.898Z,32.20
2022-11-21T08:56:09.204Z,32.53
2022-11-21T08:58:37.244Z,30.97
2022-11-21T09:01:06.861Z,29.63
2022-11-21T09:03:35.373Z,31.80
2022-11-21T09:06:03.407Z,25.17
2022-11-21T09:08:32.149Z,28.70
2022-11-21T09:11:00.173Z,30.27
2022-11-21T09:13:28.784Z,28.40
2022-11-21T09:16:19.118Z,27.23
2022-11-21T09:18:52.498Z,26.97
2022-11-21T09:21:21.332Z,25.30
2022-11-21T09:23:49.408Z,23.90
2022-11-21T09:26:17.525Z,22.27
2022-11-21T09:28:47.001Z,21.50
2022-11-21T09:31:15.064Z,21.23
2022-11-21T09:33:42.944Z,22.20
2022-11-21T09:36:12.257Z,21.90
2022-11-21T09:38:40.106Z,21.70
2022-11-21T09:41:33.282Z,23.50
2022-11-21T09:44:10.762Z,21.17
2022-11-21T09:46:47.955Z,22.40
2022-11-21T09:49:17.300Z,21.63
2022-11-21T09:51:47.353Z,23.13
2022-11-21T09:54:21.395Z,21.70
2022-11-21T09:56:50.269Z,21.77
2022-11-21T09:59:33.537Z,22.07
2022-11-21T10:02:02.917Z,19.87
2022-11-21T10:04:32.306Z,21.27
2022-11-21T10:07:07.889Z,23.70
2022-11-21T10:09:51.129Z,22.13
2022-11-21T10:12:38.688Z,25.97
2022-11-21T10:15:20.491Z,23.87
2022-11-21T10:18:03.702Z,20.63
2022-11-21T10:20:45.701Z,21.43
2022-11-21T10:23:51.601Z,18.63
2022-11-21T10:26:33.065Z,20.40
2022-11-21T10:29:08.048Z,23.20
2022-11-21T10:31:41.286Z,21.17
2022-11-21T10:34:13.874Z,24.07
2022-11-21T10:36:47.566Z,17.37
2022-11-21T10:39:21.793Z,20.63
2022-11-21T10:41:54.679Z,24.20
2022-11-21T10:44:44.806Z,18.30
2022-11-21T10:47:27.801Z,18.57
2022-11-21T10:50:05.250Z,18.90
2022-11-21T10:52:36.463Z,19.27
2022-11-21T10:55:12.228Z,18.03
2022-11-21T10:57:44.627Z,13.90
2022-11-21T11:00:22.513Z,13.50
2022-11-21T11:03:05.764Z,12.67
2022-11-21T11:05:36.629Z,16.47
2022-11-21T11:08:07.773Z,12.83
2022-11-21T11:10:38.441Z,12.40
2022-11-21T11:13:49.432Z,13.70
2022-11-21T11:16:19.528Z,12.00
2022-11-21T11:18:53.146Z,13.37
2022-11-21T11:21:22.974Z,10.90
2022-11-21T11:23:52.558Z,12.60
2022-11-21T11:26:35.148Z,13.13
2022-11-21T11:29:13.103Z,10.57
2022-11-21T11:31:42.993Z,13.33
2022-11-21T11:34:14.992Z,11.27
2022-11-21T11:37:09.612Z,9.83
2022-11-21T11:39:41.192Z,10.77
2022-11-21T11:42:40.710Z,10.50
2022-11-21T11:45:39.965Z,11.80
2022-11-21T11:48:10.379Z,11.40
2022-11-21T11:50:42.873Z,10.43
2022-11-21T11:53:16.694Z,10.73
2022-11-21T11:55:48.483Z,9.50
2022-11-21T11:58:25.470Z,10.40
2022-11-21T12:01:01.877Z,9.83
2022-11-21T12:03:41.424Z,15.03
2022-11-21T12:06:17.035Z,14.87
2022-11-21T12:08:53.200Z,15.13
2022-11-21T12:11:56.975Z,14.43
2022-11-21T12:15:11.175Z,12.93
2022-11-21T12:17:43.409Z,16.43
2022-11-21T12:20:20.726Z,13.30
2022-11-21T12:22:53.375Z,15.10
2022-11-21T12:25:26.034Z,15.40
2022-11-21T12:27:57.220Z,13.73
2022-11-21T12:30:46.767Z,13.43
2022-11-21T12:33:21.725Z,13.90
2022-11-21T12:36:17.445Z,11.80
2022-11-21T12:39:14.246Z,14.13
2022-11-21T12:42:07.338Z,13.80
2022-11-21T12:44:53.726Z,14.33
2022-11-21T12:47:56.635Z,13.10
2022-11-21T12:50:47.934Z,11.70
2022-11-21T12:53:44.825Z,12.63
2022-11-21T12:56:22.697Z,12.87
2022-11-21T12:58:55.473Z,11.67
2022-11-21T13:01:32.600Z,10.43
2022-11-21T13:04:05.448Z,10.87
2022-11-21T13:06:38.016Z,10.37
2022-11-21T13:09:11.052Z,12.23
2022-11-21T13:12:00.158Z,10.67
2022-11-21T13:14:38.494Z,10.63
2022-11-21T13:17:23.316Z,8.43
2022-11-21T13:19:58.000Z,10.87
2022-11-21T13:22:51.824Z,11.53
2022-11-21T13:25:40.683Z,13.57
2022-11-21T13:28:38.802Z,13.07
2022-11-21T13:31:32.802Z,11.00
2022-11-21T13:34:01.633Z,10.70
2022-11-21T13:36:42.299Z,11.60
2022-11-21T13:39:37.732Z,13.40
2022-11-21T13:42:31.011Z,13.40
2022-11-21T13:44:59.546Z,14.13
2022-11-21T13:48:01.013Z,13.67
2022-11-21T13:50:43.845Z,12.30
2022-11-21T13:53:30.746Z,12.57
2022-11-21T13:56:01.325Z,13.40
2022-11-21T13:58:41.342Z,14.27
2022-11-21T14:01:27.377Z,11.07
2022-11-21T14:04:34.502Z,11.03
2022-11-21T14:07:22.789Z,12.40
2022-11-21T14:09:54.171Z,10.90
2022-11-21T14:12:31.523Z,11.53
2022-11-21T14:15:21.784Z,12.43
2022-11-21T14:17:51.475Z,13.67
2022-11-21T14:20:23.264Z,12.57
2022-11-21T14:23:06.734Z,11.63
2022-11-21T14:25:44.049Z,11.00
2022-11-21T14:28:16.781Z,9.87
2022-11-21T14:30:45.954Z,11.20
2022-11-21T14:33:27.301Z,11.70
2022-11-21T14:35:59.381Z,10.27
2022-11-21T14:38:28.717Z,10.33
2022-11-21T14:41:31.392Z,10.33
2022-11-21T14:44:07.299Z,10.40
2022-11-21T14:46:36.861Z,9.57
2022-11-21T14:49:30.323Z,10.77
2022-11-21T14:52:16.599Z,10.93
2022-11-21T14:55:22.280Z,11.30
2022-11-21T14:57:43.942Z,8.87
2022-11-21T15:00:43.352Z,10.17
2022-11-21T15:03:04.655Z,9.90
2022-11-21T15:06:00.863Z,10.40
2022-11-21T15:08:59.399Z,9.53
2022-11-21T15:11:14.261Z,11.60
2022-11-21T15:14:16.687Z,11.50
2022-11-21T15:16:35.279Z,9.33
2022-11-21T15:19:10.941Z,12.43
2022-11-21T15:21:46.550Z,12.93
2022-11-21T15:24:19.684Z,10.03
2022-11-21T15:26:50.558Z,12.20
2022-11-21T15:29:22.470Z,11.40
2022-11-21T15:32:09.151Z,10.23
2022-11-21T15:34:38.548Z,11.87
2022-11-21T15:37:13.491Z,14.60
2022-11-21T15:39:44.894Z,13.40
2022-11-21T15:42:38.364Z,10.77
2022-11-21T15:48:03.552Z,11.23
2022-11-21T15:50:31.688Z,10.93
2022-11-21T15:52:59.886Z,13.97
2022-11-21T15:55:29.834Z,10.53
2022-11-21T15:57:58.339Z,10.03
2022-11-21T16:00:26.357Z,11.90
2022-11-21T16:02:54.338Z,12.17
2022-11-21T16:05:24.357Z,13.50
2022-11-21T16:07:53.423Z,12.70
2022-11-21T16:10:27.460Z,11.53
2022-11-21T16:12:56.314Z,11.73
2022-11-21T16:15:24.866Z,11.47
2022-11-21T16:17:53.303Z,10.37
2022-11-21T16:20:21.611Z,11.30
2022-11-21T16:22:51.430Z,11.17
2022-11-21T16:25:20.841Z,12.87
2022-11-21T16:27:49.629Z,10.53
2022-11-21T16:30:17.836Z,11.23
2022-11-21T16:32:47.089Z,10.00
2022-11-21T16:35:15.118Z,11.70
2022-11-21T16:37:43.245Z,9.83
2022-11-21T16:40:13.743Z,11.73
2022-11-21T16:42:41.917Z,9.90
2022-11-21T16:45:10.614Z,10.80
2022-11-21T16:47:39.668Z,12.27
2022-11-21T16:50:09.943Z,9.47
2022-11-21T16:52:38.342Z,10.20
2022-11-21T16:55:06.987Z,11.07
2022-11-21T16:57:36.807Z,11.00
2022-11-21T17:00:06.521Z,10.30
2022-11-21T17:02:37.188Z,10.67
2022-11-21T17:05:07.642Z,11.23
2022-11-21T17:07:37.220Z,12.20
2022-11-21T17:10:06.089Z,12.13
2022-11-21T17:12:39.951Z,11.57
2022-11-21T17:15:10.223Z,12.23
2022-11-21T17:17:38.670Z,12.40
2022-11-21T17:20:10.742Z,11.33
2022-11-21T17:22:40.498Z,13.27
2022-11-21T17:25:11.415Z,13.00
2022-11-21T17:27:41.537Z,12.40
2022-11-21T17:30:10.801Z,12.47
2022-11-21T17:32:38.816Z,13.73
2022-11-21T17:35:07.705Z,13.80
2022-11-21T17:37:35.998Z,13.00
2022-11-21T17:40:07.056Z,12.87
2022-11-21T17:42:35.542Z,13.43
2022-11-21T17:45:05.909Z,13.77
2022-11-21T17:47:34.425Z,14.43
2022-11-21T17:50:06.388Z,16.20
2022-11-21T17:52:35.818Z,16.87
2022-11-21T17:55:03.768Z,15.47
2022-11-21T17:57:32.121Z,14.57
2022-11-21T18:00:01.380Z,16.60
2022-11-21T18:02:31.377Z,15.77
2022-11-21T18:04:59.414Z,16.47
2022-11-21T18:07:30.107Z,17.73
2022-11-21T18:10:14.218Z,18.43
2022-11-21T18:12:47.655Z,19.87
2022-11-21T18:15:15.661Z,19.23
2022-11-21T18:17:45.149Z,18.17
2022-11-21T18:20:13.731Z,19.83
2022-11-21T18:22:41.990Z,21.23
2022-11-21T18:25:10.413Z,21.07
2022-11-21T18:27:38.537Z,20.83
2022-11-21T18:30:07.480Z,21.90
2022-11-21T18:32:35.415Z,20.97
2022-11-21T18:35:05.117Z,21.00
2022-11-21T18:37:34.982Z,24.60
2022-11-21T18:40:02.952Z,24.23
2022-11-21T18:42:33.898Z,26.37
2022-11-21T18:45:02.049Z,26.47
2022-11-21T18:47:30.547Z,25.47
2022-11-21T18:49:58.816Z,28.37
2022-11-21T18:52:31.375Z,31.00
2022-11-21T18:54:59.321Z,32.77
2022-11-21T18:57:27.623Z,31.93
2022-11-21T18:59:55.761Z,34.23
2022-11-21T19:02:24.304Z,34.17
2022-11-21T19:04:52.235Z,32.77
2022-11-21T19:07:20.400Z,35.23
2022-11-21T19:09:49.761Z,35.30
2022-11-21T19:12:17.748Z,38.80
2022-11-21T19:14:45.645Z,37.37
2022-11-21T19:17:13.841Z,40.20
2022-11-21T19:19:41.767Z,37.20
2022-11-21T19:22:09.721Z,40.57
2022-11-21T19:24:37.926Z,37.40
2022-11-21T19:27:07.881Z,37.27
2022-11-21T19:29:35.730Z,36.83
2022-11-21T19:32:03.825Z,36.23
2022-11-21T19:34:31.753Z,33.57
2022-11-21T19:36:59.849Z,33.43
2022-11-21T19:39:28.007Z,31.63
2022-11-21T19:41:56.260Z,31.33
2022-11-21T19:44:25.557Z,32.83
2022-11-21T19:46:54.832Z,32.10
2022-11-21T19:49:22.654Z,31.87
2022-11-21T19:51:50.850Z,33.87
2022-11-21T19:54:18.967Z,35.03
2022-11-21T19:56:47.121Z,29.67
2022-11-21T19:59:15.811Z,29.43
2022-11-21T20:01:52.385Z,29.67
2022-11-21T20:04:21.090Z,30.70
2022-11-21T20:06:49.163Z,26.90
2022-11-21T20:09:19.356Z,28.93
2022-11-21T20:11:49.513Z,29.43
2022-11-21T20:14:22.265Z,28.33
2022-11-21T20:16:54.016Z,27.10
2022-11-21T20:19:24.159Z,23.60
2022-11-21T20:21:52.736Z,25.57
2022-11-21T20:24:22.901Z,25.17
2022-11-21T20:26:50.806Z,23.43
2022-11-21T20:29:18.780Z,27.03
2022-11-21T20:31:48.388Z,24.33
2022-11-21T20:34:18.228Z,25.37
2022-11-21T20:36:46.898Z,24.40
2022-11-21T20:39:16.565Z,25.43
2022-11-21T20:41:45.395Z,22.80
2022-11-21T20:47:04.169Z,23.93
2022-11-21T20:49:35.328Z,23.17
2022-11-21T20:54:51.246Z,25.60
2022-11-21T20:57:19.174Z,22.63
2022-11-21T20:59:47.305Z,22.10
2022-11-21T21:02:15.824Z,22.63
2022-11-21T21:04:45.209Z,22.63
2022-11-21T21:07:13.235Z,24.47
2022-11-21T21:09:41.319Z,24.27
2022-11-21T21:12:09.445Z,24.70
2022-11-21T21:14:37.339Z,21.97
2022-11-21T21:17:05.320Z,24.23
2022-11-21T21:19:33.333Z,23.27
2022-11-21T21:22:04.968Z,24.37
2022-11-21T21:24:33.243Z,24.20
2022-11-21T21:27:01.389Z,23.17
2022-11-21T21:29:29.671Z,24.27
2022-11-21T21:31:58.283Z,25.93
2022-11-21T21:34:26.810Z,26.20
2022-11-21T21:36:54.902Z,23.73
2022-11-21T21:39:27.182Z,26.40
2022-11-21T21:41:56.994Z,29.33
2022-11-21T21:44:31.483Z,25.73
2022-11-21T21:47:01.138Z,25.37
2022-11-21T21:49:29.348Z,27.07
2022-11-21T21:51:57.374Z,26.23
2022-11-21T21:54:27.067Z,25.90
2022-11-21T21:56:55.764Z,24.40
2022-11-21T21:59:23.948Z,24.50
2022-11-21T22:01:51.964Z,25.00
2022-11-21T22:04:19.883Z,24.43
2022-11-21T22:06:47.716Z,25.47
2022-11-21T22:09:18.783Z,24.90
2022-11-21T22:11:48.393Z,26.00
2022-11-21T22:14:17.369Z,23.23
2022-11-21T22:16:45.908Z,21.73
2022-11-21T22:19:16.246Z,22.80
2022-11-21T22:21:44.377Z,23.93
2022-11-21T22:24:25.357Z,21.97
2022-11-21T22:26:55.859Z,23.60
2022-11-21T22:29:23.896Z,21.57
2022-11-21T22:31:51.984Z,20.83
2022-11-21T22:34:20.203Z,23.20
2022-11-21T22:36:48.196Z,23.40
2022-11-21T22:39:17.409Z,24.73
2022-11-21T22:41:45.595Z,23.17
2022-11-21T22:44:15.043Z,23.20
2022-11-21T22:46:42.883Z,22.33
2022-11-21T22:49:10.986Z,20.73
2022-11-21T22:51:38.946Z,23.07
2022-11-21T22:54:07.306Z,21.40
2022-11-21T22:56:35.449Z,21.87
2022-11-21T22:59:03.295Z,21.50
2022-11-21T23:01:34.094Z,20.03
2022-11-21T23:04:02.216Z,20.00
2022-11-21T23:06:30.138Z,19.97
2022-11-21T23:08:58.655Z,21.20
2022-11-21T23:11:28.811Z,21.53
2022-11-21T23:13:57.694Z,20.07
2022-11-21T23:16:26.369Z,20.97
2022-11-21T23:18:56.831Z,20.20
2022-11-21T23:21:24.972Z,22.53
2022-11-21T23:23:52.877Z,20.87
2022-11-21T23:26:21.116Z,22.67
2022-11-21T23:28:49.215Z,19.70
2022-11-21T23:31:17.456Z,20.80
2022-11-21T23:33:45.629Z,22.57
2022-11-21T23:36:14.890Z,21.87
2022-11-21T23:38:42.833Z,22.17
2022-11-21T23:41:10.967Z,21.50
2022-11-21T23:43:38.987Z,23.17
2022-11-21T23:46:06.866Z,21.17
2022-11-21T23:48:34.760Z,22.37
2022-11-21T23:51:02.620Z,19.53
2022-11-21T23:53:31.954Z,21.30
2022-11-21T23:56:02.457Z,21.80
2022-11-21T23:58:30.313Z,20.00
